Port Hope, MI (48468)

9:33 AM EST on February 11, 2016 (GMT -0500)
Eastwatch-by-the-Sea | | Change Station
CLOSE
Current Station
Personal Weather Station
Location: Port Hope, MI
Elevation: 565 ft
Nearby Weather Stations

Elev 565 ft 43.95 °N, 82.72 °W | Updated 13 seconds ago

Mostly Cloudy
Mostly Cloudy
11.1 °F
Feels Like -2 °F
N
9.8
Wind Variable Wind from NNW
Gusts 9.8 mph

Today
High -- | Low -- °F
--% Chance of Precip.
Yesterday
High -- | Low -- °F
Precip. -- in
Pressure 30.13 in
Visibility 10.0 miles
Clouds Overcast 2500 ft
Windchill -2 °F
Dew Point -0 °F
Humidity 59%
Rainfall 0.00 in
Snow Depth Not available.
7:36 AM 5:54 PM
Waxing Crescent, 12% visible
METAR KBAX 111414Z AUTO 33011G21KT 10SM OVC025 M13/M16 A3013 RMK AO2 T11261165
Pressure 30.13 in
Visibility 10.0 miles
Clouds Overcast 2500 ft
Windchill -2 °F
Dew Point -0 °F
Humidity 59%
Rainfall 0.00 in
Snow Depth Not available.
7:36 AM 5:54 PM
Waxing Crescent, 12% visible
METAR KBAX 111414Z AUTO 33011G21KT 10SM OVC025 M13/M16 A3013 RMK AO2 T11261165

10-Day Weather Forecast

Almanac

Astronomy

Feb. 11, 2016 Rise Set
Actual Time
Civil Twilight
Nautical Twilight
Astronomical Twilight
Moon
Length of Visible Light
Length of Day
Tomorrow will be .
, % of the Moon is Illuminated

Today's Extremes

State Highs State Lows

Community

WunderPhotos

Upload Photos

1,892,054 photos uploaded!

WunderBlog® & News

Nearby

Air Quality

  Air Quality AQ Index Pollutant
Not available.

Snow Depth

Station Depth Elevation

Earthquake Activity

City Distance Mag. Time & Date
Minimum magnitude displayed is 2.5.

Coastal Water Temperatures

Place Temperature

Stations

Nearby Weather Stations

Station Location Temp. Windchill Dew Point Humidity Wind Precip. Elev Updated Type
                   

Watches & Warnings

There are currently no watches in effect.